Time;durP1;ratioP1;P1;durP2;ratioP2;P2;SDS_P1;SDS_P2;PMS_P1;PMS_P2;Temp;Humidity;BMP_temperature;BMP_pressure;BME280_temperature;BME280_humidity;BME280_pressure;Samples;Min_cycle;Max_cycle;Signal;HPM_P1;HPM_P2
2023/11/24 00:02:26;;;;;;;11.07;3.37;;;;;;;;;;4963460;29;20321;-90
2023/11/24 00:04:52;;;;;;;10.82;3.13;;;7.50;1.00;;;;;;4964040;29;20482;-89
2023/11/24 00:07:20;;;;;;;13.90;3.15;;;;;;;;;;4966362;29;20249;-90
2023/11/24 00:09:46;;;;;;;6.67;2.87;;;7.50;1.00;;;;;;4971064;29;20265;-89
2023/11/24 00:12:15;;;;;;;11.87;3.60;;;7.40;99.90;;;;;;4981650;28;20469;-89
2023/11/24 00:14:42;;;;;;;12.43;3.33;;;7.40;99.90;;;;;;4981600;28;20484;-89
2023/11/24 00:17:09;;;;;;;10.15;3.38;;;;;;;;;;4981253;28;20459;-87
2023/11/24 00:19:36;;;;;;;6.63;2.25;;;;;;;;;;4980813;28;20190;-89
2023/11/24 00:22:04;;;;;;;6.28;1.85;;;;;;;;;;4974918;28;20583;-88
2023/11/24 00:24:31;;;;;;;8.02;3.17;;;;;;;;;;4965051;29;20313;-87
2023/11/24 00:26:58;;;;;;;5.13;2.42;;;;;;;;;;4962557;29;20261;-89
2023/11/24 00:29:27;;;;;;;6.90;2.83;;;7.40;12.60;;;;;;4966154;29;20254;-88
2023/11/24 00:31:58;;;;;;;11.23;2.80;;;;;;;;;;4980097;28;20482;-89
2023/11/24 00:34:30;;;;;;;10.15;2.42;;;;;;;;;;4979316;28;20179;-90
2023/11/24 00:36:58;;;;;;;8.55;2.70;;;;;;;;;;4969304;28;20269;-90
2023/11/24 00:39:25;;;;;;;9.63;2.25;;;;;;;;;;4968726;29;20273;-90
2023/11/24 00:41:52;;;;;;;10.05;2.72;;;;;;;;;;4976359;28;20255;-87
2023/11/24 00:44:19;;;;;;;6.88;2.10;;;;;;;;;;4967439;29;20354;-87
2023/11/24 00:46:48;;;;;;;9.10;4.00;;;7.40;1.00;;;;;;4964217;29;20238;-88
2023/11/24 00:49:14;;;;;;;15.00;2.90;;;7.30;1.00;;;;;;4964717;29;20245;-89
2023/11/24 00:51:41;;;;;;;6.82;2.10;;;7.60;1.00;;;;;;4973235;28;20250;-86
2023/11/24 00:54:09;;;;;;;14.55;2.88;;;;;;;;;;4977603;29;20210;-87
2023/11/24 00:56:36;;;;;;;12.00;2.83;;;7.20;1.00;;;;;;4967755;29;20203;-87
2023/11/24 00:59:03;;;;;;;11.70;3.95;;;7.20;1.00;;;;;;4967358;29;20214;-88
2023/11/24 01:01:29;;;;;;;8.75;3.47;;;6.80;99.90;;;;;;4966538;29;20298;-88
2023/11/24 01:03:58;;;;;;;11.77;3.92;;;7.30;1.00;;;;;;4965640;29;20269;-87
2023/11/24 01:06:26;;;;;;;12.82;2.20;;;7.10;1.00;;;;;;4964507;29;20207;-88
2023/11/24 01:08:53;;;;;;;7.00;2.38;;;;;;;;;;4963229;29;20229;-88
2023/11/24 01:11:20;;;;;;;8.20;2.22;;;7.10;1.00;;;;;;4961496;29;20269;-87
2023/11/24 01:13:47;;;;;;;11.23;3.17;;;7.00;99.90;;;;;;4961791;29;20224;-87
2023/11/24 01:16:14;;;;;;;8.68;2.92;;;7.00;1.00;;;;;;4961214;29;20202;-87
2023/11/24 01:18:41;;;;;;;11.38;2.15;;;;;;;;;;4961286;29;20238;-87
2023/11/24 01:21:09;;;;;;;8.27;2.65;;;7.10;1.00;;;;;;4969250;28;20261;-86
2023/11/24 01:23:37;;;;;;;14.50;2.75;;;7.00;1.00;;;;;;4972957;28;20222;-87
2023/11/24 01:26:05;;;;;;;9.65;2.88;;;7.00;1.00;;;;;;4960437;29;20688;-87
2023/11/24 01:28:32;;;;;;;10.38;2.60;;;7.00;1.00;;;;;;4960148;29;20202;-87
2023/11/24 01:30:59;;;;;;;7.13;2.38;;;6.90;19.10;;;;;;4961185;29;20210;-88
2023/11/24 01:33:26;;;;;;;5.85;2.60;;;7.00;1.00;;;;;;4962721;29;20276;-88
2023/11/24 01:35:55;;;;;;;11.48;4.38;;;7.00;1.00;;;;;;4967656;29;20228;-88
2023/11/24 01:38:24;;;;;;;9.13;2.13;;;6.90;99.90;;;;;;4964909;29;20237;-88
2023/11/24 01:40:51;;;;;;;9.15;1.90;;;6.20;99.90;;;;;;4973640;29;20214;-87
2023/11/24 01:43:18;;;;;;;10.32;4.60;;;6.90;99.90;;;;;;4974258;29;20222;-88
2023/11/24 01:45:45;;;;;;;12.07;2.83;;;6.80;99.90;;;;;;4966589;29;20298;-88
2023/11/24 01:48:14;;;;;;;8.25;4.05;;;6.10;1.00;;;;;;4966938;29;20199;-87
2023/11/24 01:50:41;;;;;;;10.05;3.30;;;6.80;94.80;;;;;;4979718;29;20190;-87
2023/11/24 01:53:08;;;;;;;13.98;2.90;;;6.70;1.00;;;;;;4979395;28;20226;-88
2023/11/24 01:55:36;;;;;;;11.57;2.05;;;6.80;99.90;;;;;;4977148;28;20229;-87
2023/11/24 01:58:04;;;;;;;8.23;3.00;;;7.10;99.90;;;;;;4972301;29;20266;-88
2023/11/24 02:00:33;;;;;;;12.20;2.15;;;5.60;1.00;;;;;;4963889;29;20217;-87
2023/11/24 02:03:00;;;;;;;4.18;1.50;;;7.00;1.00;;;;;;4962465;29;20316;-87
2023/11/24 02:05:27;;;;;;;3.17;0.90;;;4.70;99.90;;;;;;4965810;29;20222;-88
2023/11/24 02:07:54;;;;;;;2.80;1.00;;;;;;;;;;4974503;29;20209;-88
2023/11/24 02:10:22;;;;;;;6.30;1.30;;;4.70;99.90;;;;;;4977879;28;20206;-88
2023/11/24 02:12:51;;;;;;;4.03;0.90;;;4.40;99.90;;;;;;4979340;29;20249;-86
2023/11/24 02:15:18;;;;;;;5.65;1.10;;;4.80;99.90;;;;;;4980286;28;20242;-85
2023/11/24 02:17:45;;;;;;;2.17;1.23;;;4.50;99.90;;;;;;4977959;28;20201;-88
2023/11/24 02:20:13;;;;;;;2.00;1.00;;;4.40;1.00;;;;;;4979321;29;20249;-86
2023/11/24 02:22:42;;;;;;;5.28;1.27;;;4.40;97.30;;;;;;4973345;29;20254;-87
2023/11/24 02:25:10;;;;;;;3.47;1.05;;;4.50;99.90;;;;;;4973119;29;20206;-87
2023/11/24 02:27:37;;;;;;;2.20;0.88;;;3.90;99.90;;;;;;4966489;29;20251;-87
2023/11/24 02:30:05;;;;;;;2.75;1.23;;;4.40;99.90;;;;;;4962045;29;20206;-88
2023/11/24 02:32:33;;;;;;;3.25;1.30;;;4.40;99.90;;;;;;4966192;29;20222;-89
2023/11/24 02:35:00;;;;;;;2.45;1.10;;;4.50;99.90;;;;;;4962196;29;20226;-88
2023/11/24 02:37:27;;;;;;;1.30;0.95;;;4.20;99.90;;;;;;4961552;29;20210;-88
2023/11/24 02:39:56;;;;;;;2.50;1.02;;;4.60;1.00;;;;;;4961656;29;20240;-87
2023/11/24 02:42:24;;;;;;;2.38;1.00;;;4.50;99.90;;;;;;4960893;29;20617;-88
2023/11/24 02:44:51;;;;;;;5.97;1.40;;;4.50;99.90;;;;;;4960879;29;20673;-88
2023/11/24 02:47:18;;;;;;;2.33;1.65;;;4.40;99.90;;;;;;4960864;29;20206;-89
2023/11/24 02:49:45;;;;;;;2.35;2.13;;;4.50;1.00;;;;;;4961135;29;20210;-88
2023/11/24 02:52:11;;;;;;;10.73;1.40;;;4.50;1.00;;;;;;4971843;29;20253;-88
2023/11/24 02:54:38;;;;;;;5.88;1.65;;;4.50;1.00;;;;;;4973486;28;20293;-88
2023/11/24 02:57:07;;;;;;;11.68;1.63;;;4.50;1.00;;;;;;4961586;29;20297;-88
2023/11/24 02:59:34;;;;;;;5.68;1.40;;;4.50;1.00;;;;;;4960968;29;20202;-88
2023/11/24 03:02:01;;;;;;;3.90;1.50;;;;;;;;;;4960448;29;20740;-88
2023/11/24 03:04:28;;;;;;;6.78;1.95;;;5.00;1.10;;;;;;4961211;28;20238;-88
2023/11/24 03:06:55;;;;;;;13.05;1.50;;;4.80;1.00;;;;;;4964948;29;20620;-88
2023/11/24 03:09:23;;;;;;;3.70;1.35;;;4.50;1.00;;;;;;4963869;29;20238;-87
2023/11/24 03:11:50;;;;;;;5.00;1.63;;;4.40;1.00;;;;;;4966962;29;20301;-89
2023/11/24 03:14:20;;;;;;;5.22;1.83;;;;;;;;;;4977231;28;20199;-85
2023/11/24 03:16:47;;;;;;;5.50;1.70;;;4.50;1.00;;;;;;4980675;29;20220;-88
2023/11/24 03:19:14;;;;;;;7.30;1.92;;;4.50;1.00;;;;;;4982491;28;20203;-86
2023/11/24 03:21:41;;;;;;;5.07;2.03;;;4.50;1.00;;;;;;4967551;29;20264;-87
2023/11/24 03:24:08;;;;;;;8.00;1.58;;;4.30;1.00;;;;;;4963633;29;20209;-87
2023/11/24 03:26:36;;;;;;;6.15;1.75;;;4.40;1.00;;;;;;4964117;29;20202;-87
2023/11/24 03:29:03;;;;;;;11.15;2.42;;;5.50;1.00;;;;;;4962870;29;20257;-88
2023/11/24 03:31:31;;;;;;;9.30;1.88;;;4.40;1.00;;;;;;4963135;29;20213;-88
2023/11/24 03:33:58;;;;;;;10.20;2.97;;;4.80;1.00;;;;;;4962858;29;20202;-88
2023/11/24 03:36:25;;;;;;;3.97;1.92;;;5.10;1.00;;;;;;4964064;29;20739;-88
2023/11/24 03:38:51;;;;;;;3.25;1.77;;;4.40;1.00;;;;;;4967567;29;20207;-88
2023/11/24 03:41:18;;;;;;;5.72;2.00;;;4.60;1.00;;;;;;4975180;28;20677;-90
2023/11/24 03:43:47;;;;;;;16.17;4.57;;;4.50;99.90;;;;;;4969102;29;20242;-86
2023/11/24 03:46:14;;;;;;;8.40;2.15;;;4.70;99.90;;;;;;4976114;29;20266;-88
2023/11/24 03:48:42;;;;;;;15.80;3.17;;;;;;;;;;4964732;29;20737;-87
2023/11/24 03:51:09;;;;;;;8.93;3.13;;;4.80;99.90;;;;;;4965205;29;20242;-87
2023/11/24 03:53:36;;;;;;;17.60;3.10;;;5.90;99.90;;;;;;4978264;28;20233;-86
2023/11/24 03:56:04;;;;;;;8.90;2.47;;;4.80;99.90;;;;;;4965233;29;20258;-87
2023/11/24 03:58:31;;;;;;;13.48;3.40;;;4.80;99.90;;;;;;4964947;29;20217;-87
2023/11/24 04:00:58;;;;;;;14.13;2.83;;;4.90;99.90;;;;;;4964169;29;20304;-87
2023/11/24 04:03:24;;;;;;;10.05;2.30;;;4.80;99.90;;;;;;4965399;29;20252;-87
2023/11/24 04:05:52;;;;;;;9.93;2.47;;;4.80;99.90;;;;;;4966011;29;20614;-87
2023/11/24 04:08:19;;;;;;;11.25;1.90;;;6.20;99.90;;;;;;4980667;28;20205;-87
2023/11/24 04:10:46;;;;;;;5.97;1.60;;;4.90;99.90;;;;;;4977392;28;20217;-87
2023/11/24 04:13:13;;;;;;;8.68;2.25;;;4.60;99.90;;;;;;4967046;29;20716;-87
2023/11/24 04:15:40;;;;;;;13.15;2.08;;;5.10;99.90;;;;;;4962459;29;20666;-87
2023/11/24 04:18:07;;;;;;;10.38;2.80;;;5.00;99.90;;;;;;4966370;28;20786;-87
2023/11/24 04:20:33;;;;;;;7.63;3.00;;;5.10;99.90;;;;;;4971072;29;20286;-86
2023/11/24 04:23:01;;;;;;;6.57;2.30;;;5.10;99.90;;;;;;4966741;29;20254;-87
2023/11/24 04:25:29;;;;;;;9.43;2.53;;;5.20;1.00;;;;;;4967765;29;20203;-88
2023/11/24 04:27:56;;;;;;;7.95;2.53;;;5.10;99.90;;;;;;4977813;28;20230;-87
2023/11/24 04:30:23;;;;;;;4.97;3.40;;;5.00;99.90;;;;;;4971839;29;20270;-87
2023/11/24 04:32:49;;;;;;;7.10;1.85;;;4.10;1.00;;;;;;4969106;29;20317;-87
2023/11/24 04:35:16;;;;;;;4.40;1.88;;;4.70;99.90;;;;;;4975886;29;20230;-87
2023/11/24 04:37:43;;;;;;;6.88;1.80;;;4.70;1.00;;;;;;4972647;29;20202;-87
2023/11/24 04:40:12;;;;;;;5.88;2.00;;;;;;;;;;4973685;29;20237;-89
2023/11/24 04:42:39;;;;;;;6.07;1.88;;;4.70;1.00;;;;;;4973519;29;20246;-87
2023/11/24 04:45:10;;;;;;;5.07;1.50;;;5.00;92.70;;;;;;4977335;28;20222;-85
2023/11/24 04:47:38;;;;;;;14.35;1.98;;;4.80;1.00;;;;;;4969881;28;20199;-87
2023/11/24 04:50:06;;;;;;;4.32;1.30;;;4.80;1.00;;;;;;4966276;29;20216;-88
2023/11/24 04:52:34;;;;;;;1.92;1.67;;;4.80;1.00;;;;;;4964178;29;20309;-87
2023/11/24 04:55:01;;;;;;;3.40;1.88;;;4.70;1.00;;;;;;4963943;29;20210;-88
2023/11/24 04:57:29;;;;;;;2.92;1.33;;;4.70;99.90;;;;;;4963866;29;20201;-88
2023/11/24 04:59:56;;;;;;;5.63;1.50;;;4.70;99.90;;;;;;4963400;29;20289;-87
2023/11/24 05:02:23;;;;;;;1.48;1.20;;;4.80;1.00;;;;;;4961838;29;20318;-87
2023/11/24 05:04:50;;;;;;;2.08;0.90;;;5.50;99.90;;;;;;4976240;29;20263;-87
2023/11/24 05:07:19;;;;;;;9.10;2.72;;;4.80;1.00;;;;;;4981124;28;20194;-87
2023/11/24 05:09:46;;;;;;;2.92;1.80;;;4.50;99.90;;;;;;4970045;28;20226;-86
2023/11/24 05:12:13;;;;;;;3.55;1.70;;;4.50;99.90;;;;;;4980752;28;20246;-86
2023/11/24 05:14:41;;;;;;;2.38;1.38;;;5.40;99.90;;;;;;4978723;28;20242;-87
2023/11/24 05:17:08;;;;;;;9.60;4.03;;;;;;;;;;4966365;29;20268;-87
2023/11/24 05:19:35;;;;;;;4.53;1.88;;;4.50;99.90;;;;;;4964436;29;20214;-87
2023/11/24 05:22:02;;;;;;;2.70;1.40;;;4.40;99.90;;;;;;4963519;29;20380;-88
2023/11/24 05:24:29;;;;;;;7.07;1.90;;;4.50;1.00;;;;;;4968348;28;20217;-87
2023/11/24 05:26:55;;;;;;;3.28;1.75;;;4.50;99.90;;;;;;4970361;29;20363;-88
2023/11/24 05:29:23;;;;;;;5.40;1.60;;;5.20;99.90;;;;;;4972017;28;20301;-88
2023/11/24 05:31:51;;;;;;;2.92;1.25;;;4.40;74.60;;;;;;4973335;29;20277;-87
2023/11/24 05:34:18;;;;;;;8.40;2.45;;;4.40;77.20;;;;;;4969866;29;20229;-88
2023/11/24 05:36:45;;;;;;;5.13;1.80;;;4.20;99.90;;;;;;4973535;29;20308;-87
2023/11/24 06:05:09;;;;;;;4.20;2.20;;;4.60;99.90;;;;;;5183736;23;20273;-88
2023/11/24 06:07:36;;;;;;;4.68;1.40;;;4.50;99.90;;;;;;4962158;29;20213;-88
2023/11/24 06:10:05;;;;;;;3.88;1.90;;;4.90;92.50;;;;;;4962293;29;20260;-88
2023/11/24 06:12:33;;;;;;;6.25;1.88;;;4.50;1.00;;;;;;4970361;29;20206;-88
2023/11/24 06:14:59;;;;;;;4.50;1.88;;;4.60;1.00;;;;;;4962360;29;20634;-87
2023/11/24 06:17:26;;;;;;;4.25;1.60;;;4.60;1.00;;;;;;4961763;29;20246;-89
2023/11/24 06:19:53;;;;;;;3.40;1.65;;;4.60;99.90;;;;;;4961385;29;20217;-88
2023/11/24 06:22:21;;;;;;;8.07;1.65;;;4.60;1.00;;;;;;4960956;29;20699;-88
2023/11/24 06:24:49;;;;;;;7.55;2.00;;;;;;;;;;4961839;29;20225;-88
2023/11/24 06:27:15;;;;;;;10.23;2.28;;;4.70;1.00;;;;;;4961812;29;20207;-88
2023/11/24 06:29:45;;;;;;;5.43;2.35;;;4.50;1.00;;;;;;4963207;29;20273;-89
2023/11/24 06:32:23;;;;;;;16.95;4.15;;;4.60;1.00;;;;;;4962868;29;20214;-89
2023/11/24 06:34:50;;;;;;;14.18;4.75;;;;;;;;;;4961442;29;20229;-89
2023/11/24 06:37:17;;;;;;;9.93;4.63;;;4.60;99.90;;;;;;4963410;29;20260;-88
2023/11/24 06:39:46;;;;;;;12.48;3.47;;;4.80;1.00;;;;;;4962235;28;20274;-88
2023/11/24 06:42:13;;;;;;;7.97;3.53;;;4.70;1.00;;;;;;4970864;29;20203;-87
2023/11/24 06:44:40;;;;;;;10.90;2.60;;;4.90;1.00;;;;;;4966825;29;20230;-87
2023/11/24 06:47:08;;;;;;;4.35;3.53;;;4.50;1.00;;;;;;4967941;29;20304;-89
2023/11/24 06:49:34;;;;;;;4.93;1.58;;;4.90;1.00;;;;;;4970245;29;20642;-87
2023/11/24 06:52:02;;;;;;;2.42;1.83;;;5.40;99.90;;;;;;4978902;28;20242;-88
2023/11/24 06:54:29;;;;;;;5.13;2.35;;;4.80;1.00;;;;;;4971548;29;20289;-87
2023/11/24 06:56:57;;;;;;;3.60;2.58;;;4.80;99.90;;;;;;4971496;29;20233;-87
2023/11/24 06:59:25;;;;;;;7.18;2.42;;;4.90;1.00;;;;;;4977598;29;20249;-88
2023/11/24 07:01:53;;;;;;;6.07;2.60;;;6.30;99.90;;;;;;4971792;29;20569;-88
2023/11/24 07:04:20;;;;;;;7.43;2.00;;;4.60;1.00;;;;;;4970175;29;20650;-87
2023/11/24 07:06:47;;;;;;;6.22;2.60;;;6.70;99.90;;;;;;4972786;29;20281;-88
2023/11/24 07:09:14;;;;;;;6.78;2.20;;;4.20;99.90;;;;;;4980986;28;20206;-88
2023/11/24 07:11:43;;;;;;;7.90;2.50;;;;;;;;;;4978029;29;20221;-87
2023/11/24 07:14:12;;;;;;;2.40;1.98;;;;;;;;;;4967360;29;20230;-88
2023/11/24 07:16:39;;;;;;;10.77;2.25;;;;;;;;;;4972203;29;20281;-87
2023/11/24 07:19:06;;;;;;;9.60;2.15;;;;;;;;;;4978020;29;20210;-87
2023/11/24 07:21:34;;;;;;;4.82;2.25;;;;;;;;;;4974810;29;20206;-88
2023/11/24 07:24:01;;;;;;;6.13;2.45;;;5.00;1.00;;;;;;4981237;29;20238;-88
2023/11/24 07:26:29;;;;;;;6.53;2.55;;;4.70;1.00;;;;;;4982099;28;20218;-88
2023/11/24 07:28:57;;;;;;;5.78;2.22;;;5.20;99.90;;;;;;4982288;28;20193;-88
2023/11/24 07:31:25;;;;;;;12.55;3.75;;;5.20;99.90;;;;;;4981857;29;20230;-86
2023/11/24 07:33:52;;;;;;;6.00;2.70;;;5.00;1.00;;;;;;4981345;28;20214;-88
2023/11/24 07:36:19;;;;;;;3.83;2.30;;;5.00;16.80;;;;;;4973244;28;20286;-88
2023/11/24 07:38:47;;;;;;;9.38;2.60;;;5.00;99.90;;;;;;4968120;29;20212;-88
2023/11/24 07:41:14;;;;;;;6.03;2.47;;;5.10;1.00;;;;;;4974595;29;20186;-88
2023/11/24 07:43:42;;;;;;;12.90;3.40;;;5.60;1.00;;;;;;4971444;29;20249;-88
2023/11/24 07:46:10;;;;;;;13.35;4.20;;;5.30;99.90;;;;;;4967735;29;20217;-88
2023/11/24 07:48:39;;;;;;;9.38;2.00;;;4.90;1.00;;;;;;4967337;29;20285;-88
2023/11/24 07:51:06;;;;;;;8.02;2.67;;;6.10;1.00;;;;;;4964726;28;20238;-88
2023/11/24 07:53:33;;;;;;;5.13;2.80;;;5.10;99.90;;;;;;4964111;29;20210;-87
2023/11/24 07:56:00;;;;;;;9.27;2.67;;;4.50;99.90;;;;;;4964501;29;20202;-88
2023/11/24 07:58:28;;;;;;;16.10;3.75;;;4.70;1.00;;;;;;4968800;29;20258;-87
2023/11/24 08:00:55;;;;;;;8.43;2.50;;;4.80;29.50;;;;;;4980726;29;20214;-88
2023/11/24 08:03:24;;;;;;;10.68;3.72;;;4.70;99.90;;;;;;4979609;28;20206;-88
2023/11/24 08:05:52;;;;;;;8.98;3.58;;;5.20;99.90;;;;;;4980948;28;20183;-87
2023/11/24 08:08:20;;;;;;;6.72;2.60;;;4.90;67.40;;;;;;4981524;28;20203;-87
2023/11/24 08:10:47;;;;;;;7.90;2.17;;;4.90;1.00;;;;;;4981195;28;20199;-85
2023/11/24 08:13:14;;;;;;;6.18;2.55;;;;;;;;;;4982052;28;20192;-86
2023/11/24 08:15:41;;;;;;;11.63;2.10;;;4.80;1.00;;;;;;4980894;28;20217;-87
2023/11/24 08:18:07;;;;;;;8.30;2.60;;;5.30;1.00;;;;;;4971800;29;20313;-88
2023/11/24 08:20:36;;;;;;;8.07;3.08;;;;;;;;;;4976518;28;20206;-87
2023/11/24 08:23:05;;;;;;;5.05;2.58;;;4.80;1.00;;;;;;4964496;29;20286;-89
2023/11/24 08:25:32;;;;;;;12.93;2.78;;;5.00;1.00;;;;;;4964958;29;20237;-88
2023/11/24 08:27:58;;;;;;;5.97;2.67;;;4.80;99.90;;;;;;4964954;29;20203;-89
2023/11/24 08:30:28;;;;;;;5.15;1.70;;;;;;;;;;4976517;28;20206;-91
2023/11/24 08:33:05;;;;;;;5.57;2.38;;;;;;;;;;4969437;29;20210;-92
2023/11/24 08:35:36;;;;;;;6.28;3.00;;;5.10;1.00;;;;;;4973166;29;20281;-92
2023/11/24 08:38:05;;;;;;;7.38;2.50;;;;;;;;;;4980719;28;20225;-90
2023/11/24 08:40:34;;;;;;;7.45;2.15;;;;;;;;;;4978074;28;20237;-90
2023/11/24 08:43:04;;;;;;;9.25;3.05;;;;;;;;;;4974854;29;20198;-91
2023/11/24 08:45:31;;;;;;;5.18;2.00;;;;;;;;;;4970789;29;20241;-91
2023/11/24 08:48:13;;;;;;;6.07;1.60;;;5.30;1.00;;;;;;4970195;29;20285;-92
2023/11/24 08:50:49;;;;;;;5.63;2.00;;;;;;;;;;4974536;29;20282;-92
2023/11/24 08:53:23;;;;;;;4.30;2.00;;;;;;;;;;4978971;28;20182;-89
2023/11/24 08:55:55;;;;;;;6.20;1.70;;;;;;;;;;4972991;29;20254;-91
2023/11/24 08:58:25;;;;;;;4.10;2.22;;;;;;;;;;4966790;28;20282;-90
2023/11/24 09:00:53;;;;;;;7.13;3.00;;;;;;;;;;4969729;29;20206;-89
2023/11/24 09:03:24;;;;;;;5.95;2.53;;;;;;;;;;4979786;28;20198;-88
2023/11/24 09:05:51;;;;;;;4.43;1.70;;;;;;;;;;4981008;28;20213;-89
2023/11/24 09:08:20;;;;;;;8.00;2.28;;;;;;;;;;4977685;28;20214;-90
2023/11/24 09:10:47;;;;;;;3.55;1.80;;;5.30;99.90;;;;;;4973276;29;20202;-90
2023/11/24 09:13:16;;;;;;;5.93;1.25;;;5.10;1.00;;;;;;4972292;28;20210;-91
2023/11/24 09:15:45;;;;;;;4.20;2.05;;;;;;;;;;4975667;28;20213;-92
2023/11/24 09:18:15;;;;;;;6.80;1.55;;;;;;;;;;4980796;28;20230;-90
2023/11/24 09:20:43;;;;;;;9.32;3.00;;;;;;;;;;4980312;28;20202;-92
2023/11/24 09:23:10;;;;;;;5.82;2.08;;;;;;;;;;4980835;28;20206;-90
2023/11/24 09:25:44;;;;;;;8.05;1.90;;;;;;;;;;4980496;28;20218;-90
2023/11/24 09:28:11;;;;;;;9.60;2.25;;;;;;;;;;4977628;28;20193;-91
2023/11/24 09:30:39;;;;;;;2.15;1.63;;;;;;;;;;4978944;28;20206;-91
2023/11/24 09:33:21;;;;;;;7.30;1.95;;;;;;;;;;4977534;29;20261;-91
2023/11/24 09:35:49;;;;;;;10.00;2.03;;;;;;;;;;4968165;29;20638;-91
2023/11/24 09:38:16;;;;;;;8.10;2.42;;;;;;;;;;4965971;29;20277;-90
2023/11/24 09:40:45;;;;;;;8.32;1.75;;;;;;;;;;4964903;29;20230;-90
2023/11/24 09:43:13;;;;;;;7.88;1.85;;;5.40;99.90;;;;;;4966593;29;20221;-91
2023/11/24 09:45:41;;;;;;;8.93;1.90;;;;;;;;;;4979234;29;20214;-91
2023/11/24 09:48:11;;;;;;;7.32;2.35;;;5.50;99.90;;;;;;4975381;28;20301;-90
2023/11/24 09:50:39;;;;;;;6.20;2.08;;;5.30;1.00;;;;;;4964489;29;20191;-90
2023/11/24 09:53:12;;;;;;;1.90;1.70;;;5.50;99.90;;;;;;4963775;29;20211;-91
2023/11/24 09:55:40;;;;;;;4.53;1.27;;;;;;;;;;4962631;29;20289;-90
2023/11/24 09:58:12;;;;;;;9.13;2.63;;;;;;;;;;4963764;29;20221;-91
2023/11/24 10:00:40;;;;;;;3.70;1.33;;;5.40;99.90;;;;;;4965318;29;20296;-90
2023/11/24 10:03:08;;;;;;;4.28;2.25;;;5.30;1.00;;;;;;4962571;29;20233;-90
2023/11/24 10:05:35;;;;;;;8.07;2.50;;;;;;;;;;4966660;28;20238;-90
2023/11/24 10:08:07;;;;;;;5.22;1.95;;;5.50;1.00;;;;;;4968484;29;20210;-90
2023/11/24 10:10:34;;;;;;;4.28;1.60;;;;;;;;;;4966721;29;20191;-90
2023/11/24 10:13:12;;;;;;;9.38;2.30;;;;;;;;;;4964592;29;20225;-91
2023/11/24 10:15:42;;;;;;;12.45;2.55;;;;;;;;;;4967378;28;20234;-90
2023/11/24 10:18:10;;;;;;;5.57;2.20;;;;;;;;;;4966772;29;20214;-90
2023/11/24 10:20:38;;;;;;;12.90;2.03;;;;;;;;;;4967034;29;20214;-91
2023/11/24 10:23:05;;;;;;;4.40;1.70;;;;;;;;;;4966515;29;20210;-91
2023/11/24 10:25:35;;;;;;;7.40;2.00;;;;;;;;;;4965443;29;20231;-92
2023/11/24 10:28:06;;;;;;;5.18;1.80;;;;;;;;;;4963401;29;20217;-90
2023/11/24 10:30:33;;;;;;;5.72;1.70;;;;;;;;;;4961995;29;20201;-88
2023/11/24 10:33:03;;;;;;;12.23;2.22;;;5.50;99.90;;;;;;4962368;29;20264;-88
2023/11/24 10:35:30;;;;;;;3.90;1.92;;;;;;;;;;4964921;29;20222;-89
2023/11/24 10:38:04;;;;;;;5.13;1.60;;;5.70;99.90;;;;;;4974102;29;20227;-89
2023/11/24 10:40:33;;;;;;;3.72;2.25;;;5.70;6.30;;;;;;4971891;29;20277;-89
2023/11/24 10:43:03;;;;;;;3.58;2.00;;;5.70;1.00;;;;;;4971953;28;20202;-89
2023/11/24 10:45:34;;;;;;;10.52;1.95;;;5.60;1.00;;;;;;4976363;29;20250;-90
2023/11/24 10:48:09;;;;;;;5.35;2.13;;;5.60;19.70;;;;;;4964494;29;20187;-90
2023/11/24 10:50:41;;;;;;;7.32;1.75;;;5.70;1.80;;;;;;4965999;29;20201;-89
2023/11/24 10:53:16;;;;;;;6.57;1.70;;;5.80;15.70;;;;;;4963986;29;20587;-91
2023/11/24 10:55:45;;;;;;;4.68;1.55;;;5.80;1.00;;;;;;4964112;29;20194;-89
2023/11/24 10:58:14;;;;;;;8.18;1.75;;;5.90;1.00;;;;;;4970842;29;20277;-89
2023/11/24 11:00:44;;;;;;;3.80;2.08;;;5.90;1.00;;;;;;4977930;28;20206;-89
2023/11/24 11:03:15;;;;;;;5.32;1.95;;;;;;;;;;4976296;28;20230;-89
2023/11/24 11:05:58;;;;;;;5.35;2.42;;;5.90;1.00;;;;;;4966300;29;20226;-89
2023/11/24 11:08:34;;;;;;;6.88;1.40;;;6.00;29.10;;;;;;4979256;28;20205;-88
2023/11/24 11:11:30;;;;;;;5.82;2.05;;;6.00;27.30;;;;;;4978541;28;20266;-89
2023/11/24 11:14:01;;;;;;;5.68;1.80;;;5.90;1.00;;;;;;4923755;29;20353;-89
2023/11/24 11:16:29;;;;;;;3.13;2.03;;;6.00;11.80;;;;;;4968073;29;20202;-89
2023/11/24 11:19:02;;;;;;;2.65;2.15;;;;;;;;;;4965331;29;20596;-88
2023/11/24 11:21:39;;;;;;;5.68;2.25;;;5.90;1.00;;;;;;4967234;29;20205;-89
2023/11/24 11:24:08;;;;;;;4.95;1.88;;;;;;;;;;4975433;28;20258;-90
2023/11/24 11:26:50;;;;;;;2.72;1.75;;;6.00;1.00;;;;;;4969427;28;20683;-89
2023/11/24 11:29:23;;;;;;;6.75;1.70;;;5.80;1.00;;;;;;4971531;29;20281;-90
2023/11/24 11:31:51;;;;;;;10.15;2.35;;;;;;;;;;4973576;29;20198;-91
2023/11/24 11:34:20;;;;;;;8.52;2.28;;;;;;;;;;4972999;29;20230;-90
2023/11/24 11:37:01;;;;;;;4.10;2.05;;;6.00;1.00;;;;;;4972301;29;20207;-91
2023/11/24 11:39:31;;;;;;;5.88;1.60;;;;;;;;;;4975699;29;20245;-90
2023/11/24 11:42:05;;;;;;;9.98;2.25;;;;;;;;;;4979571;28;20190;-90
2023/11/24 11:44:39;;;;;;;7.50;2.45;;;;;;;;;;4979392;29;20717;-89
2023/11/24 11:47:20;;;;;;;2.53;1.52;;;6.20;99.90;;;;;;4979296;29;20189;-89
2023/11/24 11:49:53;;;;;;;8.10;2.10;;;6.00;1.00;;;;;;4977935;29;20186;-89
2023/11/24 11:52:21;;;;;;;7.25;1.65;;;;;;;;;;4973040;29;20190;-89
2023/11/24 11:54:52;;;;;;;6.50;2.45;;;;;;;;;;4972350;29;20266;-90
2023/11/24 11:57:21;;;;;;;16.35;2.20;;;;;;;;;;4971255;29;20218;-89
2023/11/24 11:59:59;;;;;;;7.93;1.98;;;;;;;;;;4971910;29;20206;-91
2023/11/24 12:02:28;;;;;;;7.97;4.30;;;;;;;;;;4972565;28;20210;-91
2023/11/24 12:36:23;;;;;;;4.82;1.67;;;6.10;1.00;;;;;;4938949;23;20240;-90
2023/11/24 12:38:51;;;;;;;7.38;1.55;;;;;;;;;;4975606;28;20230;-89
2023/11/24 12:41:30;;;;;;;4.15;1.80;;;;;;;;;;4978695;28;20202;-90
2023/11/24 12:50:01;;;;;;;10.70;2.00;;;6.10;1.00;;;;;;5044569;23;20294;-89
2023/11/24 12:52:32;;;;;;;2.35;1.98;;;6.00;1.00;;;;;;4987339;28;20256;-90
2023/11/24 12:55:01;;;;;;;6.00;1.38;;;;;;;;;;4990329;28;20194;-89
2023/11/24 12:57:29;;;;;;;4.18;2.25;;;;;;;;;;4994157;28;20205;-90
2023/11/24 13:00:06;;;;;;;2.90;1.70;;;;;;;;;;4993282;28;20229;-90
2023/11/24 13:02:33;;;;;;;3.80;1.40;;;;;;;;;;4997704;28;20222;-90
2023/11/24 13:05:01;;;;;;;10.85;2.25;;;;;;;;;;4998608;28;20197;-91
2023/11/24 13:07:29;;;;;;;10.50;3.53;;;;;;;;;;4997821;28;20213;-90
2023/11/24 13:10:15;;;;;;;4.97;1.50;;;6.00;1.00;;;;;;4996216;28;20244;-87
2023/11/24 13:12:43;;;;;;;5.60;1.67;;;;;;;;;;4996057;28;20256;-89
2023/11/24 13:15:12;;;;;;;7.07;1.90;;;;;;;;;;4993605;28;20209;-90
2023/11/24 13:17:41;;;;;;;5.28;1.73;;;;;;;;;;4994463;28;20240;-88
2023/11/24 13:20:11;;;;;;;4.03;1.92;;;;;;;;;;4993840;28;20222;-86
2023/11/24 13:22:43;;;;;;;3.50;1.67;;;;;;;;;;4991537;28;20660;-89
2023/11/24 13:25:11;;;;;;;7.63;2.33;;;;;;;;;;4990010;28;20243;-88
2023/11/24 13:27:41;;;;;;;3.90;2.00;;;;;;;;;;4986963;28;20309;-89
2023/11/24 13:30:11;;;;;;;3.53;1.65;;;;;;;;;;4987548;28;20264;-88
2023/11/24 13:32:43;;;;;;;6.63;1.95;;;;;;;;;;4988021;28;20204;-89
2023/11/24 13:35:15;;;;;;;9.75;5.00;;;;;;;;;;4996759;28;20723;-88
2023/11/24 13:37:50;;;;;;;2.47;1.63;;;;;;;;;;4985809;28;20213;-89
2023/11/24 13:40:25;;;;;;;2.08;1.20;;;;;;;;;;4989405;28;20320;-88
2023/11/24 13:43:02;;;;;;;4.55;1.20;;;;;;;;;;4987070;28;20209;-89
2023/11/24 13:45:30;;;;;;;4.18;1.40;;;;;;;;;;4989909;28;20205;-89
2023/11/24 13:48:00;;;;;;;2.03;1.70;;;;;;;;;;4989479;28;20206;-89
2023/11/24 13:50:28;;;;;;;1.90;1.35;;;;;;;;;;4988620;28;20237;-90
2023/11/24 13:52:56;;;;;;;1.50;1.40;;;;;;;;;;4992260;28;20247;-89
2023/11/24 13:55:33;;;;;;;2.80;1.30;;;;;;;;;;4995994;28;20190;-89
2023/11/24 13:58:04;;;;;;;6.03;1.52;;;;;;;;;;4990621;28;20233;-90
2023/11/24 14:00:32;;;;;;;2.85;1.38;;;;;;;;;;4987865;28;20292;-89
2023/11/24 14:03:01;;;;;;;5.57;1.85;;;;;;;;;;4986882;28;20221;-89
2023/11/24 14:05:28;;;;;;;2.50;1.42;;;;;;;;;;4994967;28;20193;-89
2023/11/24 14:07:55;;;;;;;3.08;2.05;;;;;;;;;;4999622;28;20193;-89
2023/11/24 14:10:22;;;;;;;2.05;1.27;;;;;;;;;;4998107;28;20276;-89
2023/11/24 14:15:51;;;;;;;1.95;1.10;;;;;;;;;;4996831;28;20190;-90
2023/11/24 14:18:33;;;;;;;7.63;1.80;;;;;;;;;;4994984;28;20226;-90
2023/11/24 14:21:04;;;;;;;5.57;1.90;;;;;;;;;;4998203;28;20277;-90
2023/11/24 14:23:33;;;;;;;8.57;1.73;;;;;;;;;;4993624;28;20202;-90
2023/11/24 14:26:27;;;;;;;2.50;1.42;;;;;;;;;;4998177;28;20198;-89
2023/11/24 14:28:54;;;;;;;4.45;1.50;;;;;;;;;;4999387;28;20177;-88
2023/11/24 14:31:23;;;;;;;2.65;1.55;;;;;;;;;;4999356;28;20213;-88
2023/11/24 14:33:50;;;;;;;2.90;1.10;;;;;;;;;;4998218;28;20202;-88
2023/11/24 14:36:17;;;;;;;2.38;1.38;;;;;;;;;;4994785;28;20210;-89
2023/11/24 14:38:48;;;;;;;2.75;1.20;;;;;;;;;;4984742;28;20229;-89
2023/11/24 14:41:16;;;;;;;4.50;1.90;;;;;;;;;;4984280;28;20723;-88
2023/11/24 14:43:56;;;;;;;4.03;1.90;;;4.70;1.00;;;;;;4984410;28;20269;-88
2023/11/24 14:46:38;;;;;;;3.00;1.55;;;;;;;;;;4990723;28;20216;-88
2023/11/24 14:49:08;;;;;;;4.13;1.55;;;;;;;;;;4997068;28;20217;-89
2023/11/24 14:51:35;;;;;;;7.85;2.03;;;4.80;1.00;;;;;;4989743;28;20276;-88
2023/11/24 14:54:03;;;;;;;4.18;1.75;;;;;;;;;;4987110;28;20714;-88